sensor_id;sensor_type;location;lat;lon;timestamp;temperature;humidity
15916;DHT22;8057;47.830;-3.870;2022-08-21T00:03:01;16.40;99.90
15916;DHT22;8057;47.830;-3.870;2022-08-21T00:07:16;16.40;99.90
15916;DHT22;8057;47.830;-3.870;2022-08-21T00:11:52;16.30;99.90
15916;DHT22;8057;47.830;-3.870;2022-08-21T00:16:04;16.30;99.90
15916;DHT22;8057;47.830;-3.870;2022-08-21T00:20:20;16.30;99.90
15916;DHT22;8057;47.830;-3.870;2022-08-21T00:24:39;16.40;99.90
15916;DHT22;8057;47.830;-3.870;2022-08-21T00:29:00;16.40;99.90
15916;DHT22;8057;47.830;-3.870;2022-08-21T00:33:14;16.40;99.90
15916;DHT22;8057;47.830;-3.870;2022-08-21T00:37:30;16.40;99.90
15916;DHT22;8057;47.830;-3.870;2022-08-21T00:41:46;16.40;99.90
15916;DHT22;8057;47.830;-3.870;2022-08-21T00:46:02;16.40;99.90
15916;DHT22;8057;47.830;-3.870;2022-08-21T00:50:23;16.50;99.90
15916;DHT22;8057;47.830;-3.870;2022-08-21T00:54:35;16.50;99.90
15916;DHT22;8057;47.830;-3.870;2022-08-21T00:58:56;16.50;99.90
15916;DHT22;8057;47.830;-3.870;2022-08-21T01:03:21;16.60;99.90
15916;DHT22;8057;47.830;-3.870;2022-08-21T01:07:32;16.60;99.90
15916;DHT22;8057;47.830;-3.870;2022-08-21T01:11:44;16.60;99.90
15916;DHT22;8057;47.830;-3.870;2022-08-21T01:16:01;16.60;99.90
15916;DHT22;8057;47.830;-3.870;2022-08-21T01:20:12;16.60;99.90
15916;DHT22;8057;47.830;-3.870;2022-08-21T01:24:23;16.60;99.90
15916;DHT22;8057;47.830;-3.870;2022-08-21T01:28:45;16.60;99.90
15916;DHT22;8057;47.830;-3.870;2022-08-21T01:32:58;16.60;99.90
15916;DHT22;8057;47.830;-3.870;2022-08-21T01:37:09;16.50;99.90
15916;DHT22;8057;47.830;-3.870;2022-08-21T01:41:24;16.50;99.90
15916;DHT22;8057;47.830;-3.870;2022-08-21T01:45:34;16.50;99.90
15916;DHT22;8057;47.830;-3.870;2022-08-21T01:49:45;16.50;99.90
15916;DHT22;8057;47.830;-3.870;2022-08-21T01:53:54;16.50;99.90
15916;DHT22;8057;47.830;-3.870;2022-08-21T01:58:10;16.50;99.90
15916;DHT22;8057;47.830;-3.870;2022-08-21T02:02:21;16.50;99.90
15916;DHT22;8057;47.830;-3.870;2022-08-21T02:06:32;16.50;99.90
15916;DHT22;8057;47.830;-3.870;2022-08-21T02:10:48;16.50;99.90
15916;DHT22;8057;47.830;-3.870;2022-08-21T02:15:00;16.40;99.90
15916;DHT22;8057;47.830;-3.870;2022-08-21T02:19:11;16.40;99.90
15916;DHT22;8057;47.830;-3.870;2022-08-21T02:23:22;16.50;99.90
15916;DHT22;8057;47.830;-3.870;2022-08-21T02:27:43;16.50;99.90
15916;DHT22;8057;47.830;-3.870;2022-08-21T02:31:58;16.50;99.90
15916;DHT22;8057;47.830;-3.870;2022-08-21T02:36:12;16.50;99.90
15916;DHT22;8057;47.830;-3.870;2022-08-21T02:40:25;16.50;99.90
15916;DHT22;8057;47.830;-3.870;2022-08-21T02:44:35;16.50;99.90
15916;DHT22;8057;47.830;-3.870;2022-08-21T02:48:49;16.50;99.90
15916;DHT22;8057;47.830;-3.870;2022-08-21T02:53:03;16.50;99.90
15916;DHT22;8057;47.830;-3.870;2022-08-21T02:57:23;16.50;99.90
15916;DHT22;8057;47.830;-3.870;2022-08-21T03:01:33;16.40;99.90
15916;DHT22;8057;47.830;-3.870;2022-08-21T03:05:45;16.40;99.90
15916;DHT22;8057;47.830;-3.870;2022-08-21T03:09:55;16.30;99.90
15916;DHT22;8057;47.830;-3.870;2022-08-21T03:14:04;16.30;99.90
15916;DHT22;8057;47.830;-3.870;2022-08-21T03:18:13;16.30;99.90
15916;DHT22;8057;47.830;-3.870;2022-08-21T03:22:24;16.20;99.90
15916;DHT22;8057;47.830;-3.870;2022-08-21T03:26:36;16.30;99.90
15916;DHT22;8057;47.830;-3.870;2022-08-21T03:30:50;16.20;99.90
15916;DHT22;8057;47.830;-3.870;2022-08-21T03:35:00;16.20;99.90
15916;DHT22;8057;47.830;-3.870;2022-08-21T03:39:11;16.30;99.90
15916;DHT22;8057;47.830;-3.870;2022-08-21T03:43:20;16.30;99.90
15916;DHT22;8057;47.830;-3.870;2022-08-21T03:47:30;16.30;99.90
15916;DHT22;8057;47.830;-3.870;2022-08-21T03:51:39;16.30;99.90
15916;DHT22;8057;47.830;-3.870;2022-08-21T03:55:51;16.40;99.90
15916;DHT22;8057;47.830;-3.870;2022-08-21T04:00:01;16.40;99.90
15916;DHT22;8057;47.830;-3.870;2022-08-21T04:04:10;16.40;99.90
15916;DHT22;8057;47.830;-3.870;2022-08-21T04:08:20;16.40;99.90
15916;DHT22;8057;47.830;-3.870;2022-08-21T04:12:31;16.40;99.90
15916;DHT22;8057;47.830;-3.870;2022-08-21T04:16:41;16.50;99.90
15916;DHT22;8057;47.830;-3.870;2022-08-21T04:20:51;16.40;99.90
15916;DHT22;8057;47.830;-3.870;2022-08-21T04:25:05;16.50;99.90
15916;DHT22;8057;47.830;-3.870;2022-08-21T04:29:16;16.50;99.90
15916;DHT22;8057;47.830;-3.870;2022-08-21T04:33:26;16.50;99.90
15916;DHT22;8057;47.830;-3.870;2022-08-21T04:37:36;16.40;99.90
15916;DHT22;8057;47.830;-3.870;2022-08-21T04:41:48;16.50;99.90
15916;DHT22;8057;47.830;-3.870;2022-08-21T04:45:59;16.40;99.90
15916;DHT22;8057;47.830;-3.870;2022-08-21T04:50:09;16.40;99.90
15916;DHT22;8057;47.830;-3.870;2022-08-21T04:54:20;16.40;99.90
15916;DHT22;8057;47.830;-3.870;2022-08-21T04:58:31;16.30;99.90
15916;DHT22;8057;47.830;-3.870;2022-08-21T05:02:42;16.30;99.90
15916;DHT22;8057;47.830;-3.870;2022-08-21T05:06:55;16.30;99.90
15916;DHT22;8057;47.830;-3.870;2022-08-21T05:11:06;16.30;99.90
15916;DHT22;8057;47.830;-3.870;2022-08-21T05:15:15;16.30;99.90
15916;DHT22;8057;47.830;-3.870;2022-08-21T05:19:26;16.30;99.90
15916;DHT22;8057;47.830;-3.870;2022-08-21T05:23:36;16.30;99.90
15916;DHT22;8057;47.830;-3.870;2022-08-21T05:27:45;16.30;99.90
15916;DHT22;8057;47.830;-3.870;2022-08-21T05:31:58;16.30;99.90
15916;DHT22;8057;47.830;-3.870;2022-08-21T05:36:09;16.40;99.90
15916;DHT22;8057;47.830;-3.870;2022-08-21T05:40:19;16.30;99.90
15916;DHT22;8057;47.830;-3.870;2022-08-21T05:44:29;16.40;99.90
15916;DHT22;8057;47.830;-3.870;2022-08-21T05:48:39;16.30;99.90
15916;DHT22;8057;47.830;-3.870;2022-08-21T05:52:51;16.30;99.90
15916;DHT22;8057;47.830;-3.870;2022-08-21T05:57:10;16.40;99.90
15916;DHT22;8057;47.830;-3.870;2022-08-21T06:01:20;16.40;99.90
15916;DHT22;8057;47.830;-3.870;2022-08-21T06:05:29;16.40;99.90
15916;DHT22;8057;47.830;-3.870;2022-08-21T06:09:45;16.50;99.90
15916;DHT22;8057;47.830;-3.870;2022-08-21T06:13:54;16.50;99.90
15916;DHT22;8057;47.830;-3.870;2022-08-21T06:18:04;16.50;99.90
15916;DHT22;8057;47.830;-3.870;2022-08-21T06:22:14;16.50;99.90
15916;DHT22;8057;47.830;-3.870;2022-08-21T06:26:25;16.50;99.90
15916;DHT22;8057;47.830;-3.870;2022-08-21T06:30:37;16.50;99.90
15916;DHT22;8057;47.830;-3.870;2022-08-21T06:34:47;16.50;99.90
15916;DHT22;8057;47.830;-3.870;2022-08-21T06:39:03;16.50;99.90
15916;DHT22;8057;47.830;-3.870;2022-08-21T06:48:33;16.60;99.90
15916;DHT22;8057;47.830;-3.870;2022-08-21T06:52:47;16.60;99.90
15916;DHT22;8057;47.830;-3.870;2022-08-21T06:57:12;16.60;99.90
15916;DHT22;8057;47.830;-3.870;2022-08-21T07:01:25;16.60;99.90
15916;DHT22;8057;47.830;-3.870;2022-08-21T07:05:52;16.70;99.90
15916;DHT22;8057;47.830;-3.870;2022-08-21T07:20:02;16.70;99.90
15916;DHT22;8057;47.830;-3.870;2022-08-21T07:24:21;16.60;99.90
15916;DHT22;8057;47.830;-3.870;2022-08-21T07:28:33;16.60;99.90
15916;DHT22;8057;47.830;-3.870;2022-08-21T07:32:43;16.60;99.90
15916;DHT22;8057;47.830;-3.870;2022-08-21T07:36:52;16.60;99.90
15916;DHT22;8057;47.830;-3.870;2022-08-21T07:51:46;16.80;99.90
15916;DHT22;8057;47.830;-3.870;2022-08-21T07:56:09;16.80;99.90
15916;DHT22;8057;47.830;-3.870;2022-08-21T08:00:24;16.90;99.90
15916;DHT22;8057;47.830;-3.870;2022-08-21T08:04:41;16.90;99.90
15916;DHT22;8057;47.830;-3.870;2022-08-21T08:14:47;16.90;99.90
15916;DHT22;8057;47.830;-3.870;2022-08-21T08:19:26;17.00;99.90
15916;DHT22;8057;47.830;-3.870;2022-08-21T08:23:44;17.00;99.90
15916;DHT22;8057;47.830;-3.870;2022-08-21T08:27:54;17.10;99.90
15916;DHT22;8057;47.830;-3.870;2022-08-21T08:32:05;17.10;99.90
15916;DHT22;8057;47.830;-3.870;2022-08-21T08:36:16;17.20;99.90
15916;DHT22;8057;47.830;-3.870;2022-08-21T08:40:32;17.30;99.90
15916;DHT22;8057;47.830;-3.870;2022-08-21T08:44:52;17.40;99.90
15916;DHT22;8057;47.830;-3.870;2022-08-21T08:49:10;17.50;99.90
15916;DHT22;8057;47.830;-3.870;2022-08-21T08:53:25;17.60;99.90
15916;DHT22;8057;47.830;-3.870;2022-08-21T08:57:37;17.70;99.90
15916;DHT22;8057;47.830;-3.870;2022-08-21T09:01:48;17.80;99.90
15916;DHT22;8057;47.830;-3.870;2022-08-21T09:06:04;17.90;99.90
15916;DHT22;8057;47.830;-3.870;2022-08-21T09:10:19;18.10;99.90
15916;DHT22;8057;47.830;-3.870;2022-08-21T09:14:47;18.30;99.90
15916;DHT22;8057;47.830;-3.870;2022-08-21T09:19:03;18.50;99.90
15916;DHT22;8057;47.830;-3.870;2022-08-21T09:23:24;18.80;99.90
15916;DHT22;8057;47.830;-3.870;2022-08-21T09:27:36;18.90;99.90
15916;DHT22;8057;47.830;-3.870;2022-08-21T09:31:45;18.90;99.90
15916;DHT22;8057;47.830;-3.870;2022-08-21T09:35:56;18.90;99.90
15916;DHT22;8057;47.830;-3.870;2022-08-21T09:40:20;18.90;99.90
15916;DHT22;8057;47.830;-3.870;2022-08-21T09:44:31;18.80;99.90
15916;DHT22;8057;47.830;-3.870;2022-08-21T09:48:44;18.70;99.90
15916;DHT22;8057;47.830;-3.870;2022-08-21T09:52:56;18.80;99.90
15916;DHT22;8057;47.830;-3.870;2022-08-21T09:57:18;18.90;99.90
15916;DHT22;8057;47.830;-3.870;2022-08-21T10:01:54;18.90;99.90
15916;DHT22;8057;47.830;-3.870;2022-08-21T10:06:05;19.00;99.90
15916;DHT22;8057;47.830;-3.870;2022-08-21T10:10:20;19.00;99.90
15916;DHT22;8057;47.830;-3.870;2022-08-21T10:14:44;19.10;99.90
15916;DHT22;8057;47.830;-3.870;2022-08-21T10:19:09;19.30;99.90
15916;DHT22;8057;47.830;-3.870;2022-08-21T10:23:32;19.50;99.90
15916;DHT22;8057;47.830;-3.870;2022-08-21T10:27:53;19.60;99.90
15916;DHT22;8057;47.830;-3.870;2022-08-21T10:32:12;19.60;99.90
15916;DHT22;8057;47.830;-3.870;2022-08-21T10:36:35;19.80;99.90
15916;DHT22;8057;47.830;-3.870;2022-08-21T10:40:52;20.00;99.90
15916;DHT22;8057;47.830;-3.870;2022-08-21T10:45:19;20.30;99.90
15916;DHT22;8057;47.830;-3.870;2022-08-21T10:49:40;20.50;99.90
15916;DHT22;8057;47.830;-3.870;2022-08-21T10:53:58;20.60;99.90
15916;DHT22;8057;47.830;-3.870;2022-08-21T10:58:10;20.80;99.90
15916;DHT22;8057;47.830;-3.870;2022-08-21T11:02:22;20.80;99.90
15916;DHT22;8057;47.830;-3.870;2022-08-21T11:06:38;20.90;99.90
15916;DHT22;8057;47.830;-3.870;2022-08-21T11:11:20;21.20;99.90
15916;DHT22;8057;47.830;-3.870;2022-08-21T11:15:40;21.80;99.90
15916;DHT22;8057;47.830;-3.870;2022-08-21T11:19:53;21.90;99.90
15916;DHT22;8057;47.830;-3.870;2022-08-21T11:24:16;22.00;99.90
15916;DHT22;8057;47.830;-3.870;2022-08-21T11:28:29;21.70;99.90
15916;DHT22;8057;47.830;-3.870;2022-08-21T11:33:01;21.50;99.90
15916;DHT22;8057;47.830;-3.870;2022-08-21T11:37:21;21.60;99.90
15916;DHT22;8057;47.830;-3.870;2022-08-21T11:41:38;21.60;99.90
15916;DHT22;8057;47.830;-3.870;2022-08-21T11:45:52;21.80;99.90
15916;DHT22;8057;47.830;-3.870;2022-08-21T11:50:10;21.90;99.90
15916;DHT22;8057;47.830;-3.870;2022-08-21T11:54:45;22.00;99.90
15916;DHT22;8057;47.830;-3.870;2022-08-21T11:58:59;21.90;99.90
15916;DHT22;8057;47.830;-3.870;2022-08-21T12:03:13;21.70;99.90
15916;DHT22;8057;47.830;-3.870;2022-08-21T12:07:33;21.60;99.90
15916;DHT22;8057;47.830;-3.870;2022-08-21T12:11:47;21.70;99.90
15916;DHT22;8057;47.830;-3.870;2022-08-21T12:16:07;21.90;99.90
15916;DHT22;8057;47.830;-3.870;2022-08-21T12:20:36;22.00;99.90
15916;DHT22;8057;47.830;-3.870;2022-08-21T12:25:05;22.00;99.90
15916;DHT22;8057;47.830;-3.870;2022-08-21T12:29:21;22.10;99.90
15916;DHT22;8057;47.830;-3.870;2022-08-21T12:33:35;22.30;99.90
15916;DHT22;8057;47.830;-3.870;2022-08-21T12:37:49;22.40;99.90
15916;DHT22;8057;47.830;-3.870;2022-08-21T12:42:03;22.50;99.90
15916;DHT22;8057;47.830;-3.870;2022-08-21T12:46:16;22.50;99.90
15916;DHT22;8057;47.830;-3.870;2022-08-21T12:50:32;22.50;99.90
15916;DHT22;8057;47.830;-3.870;2022-08-21T12:54:44;22.40;99.90
15916;DHT22;8057;47.830;-3.870;2022-08-21T12:58:56;22.60;99.90
15916;DHT22;8057;47.830;-3.870;2022-08-21T13:03:06;22.70;99.90
15916;DHT22;8057;47.830;-3.870;2022-08-21T13:07:24;22.70;99.90
15916;DHT22;8057;47.830;-3.870;2022-08-21T13:11:34;22.70;99.90
15916;DHT22;8057;47.830;-3.870;2022-08-21T13:15:47;22.60;99.90
15916;DHT22;8057;47.830;-3.870;2022-08-21T13:19:58;22.80;99.90
15916;DHT22;8057;47.830;-3.870;2022-08-21T13:24:15;23.10;99.90
15916;DHT22;8057;47.830;-3.870;2022-08-21T13:28:45;23.30;99.90
15916;DHT22;8057;47.830;-3.870;2022-08-21T13:32:58;23.40;99.90
15916;DHT22;8057;47.830;-3.870;2022-08-21T15:24:35;21.10;99.90
15916;DHT22;8057;47.830;-3.870;2022-08-21T15:28:44;21.00;99.90
15916;DHT22;8057;47.830;-3.870;2022-08-21T15:32:53;20.90;99.90
15916;DHT22;8057;47.830;-3.870;2022-08-21T15:37:02;20.90;99.90
15916;DHT22;8057;47.830;-3.870;2022-08-21T15:41:17;20.90;99.90
15916;DHT22;8057;47.830;-3.870;2022-08-21T15:45:27;20.80;99.90
15916;DHT22;8057;47.830;-3.870;2022-08-21T15:49:36;20.70;99.90
15916;DHT22;8057;47.830;-3.870;2022-08-21T15:53:45;20.70;99.90
15916;DHT22;8057;47.830;-3.870;2022-08-21T15:57:56;20.70;99.90
15916;DHT22;8057;47.830;-3.870;2022-08-21T16:02:14;20.70;99.90
15916;DHT22;8057;47.830;-3.870;2022-08-21T16:06:24;20.60;99.90
15916;DHT22;8057;47.830;-3.870;2022-08-21T16:10:53;20.50;99.90
15916;DHT22;8057;47.830;-3.870;2022-08-21T16:15:07;20.30;99.90
15916;DHT22;8057;47.830;-3.870;2022-08-21T16:19:28;20.20;99.90
15916;DHT22;8057;47.830;-3.870;2022-08-21T16:23:37;20.20;99.90
15916;DHT22;8057;47.830;-3.870;2022-08-21T16:27:51;20.20;99.90
15916;DHT22;8057;47.830;-3.870;2022-08-21T16:32:07;20.30;99.90
15916;DHT22;8057;47.830;-3.870;2022-08-21T16:36:16;20.30;99.90
15916;DHT22;8057;47.830;-3.870;2022-08-21T16:40:25;20.30;99.90
15916;DHT22;8057;47.830;-3.870;2022-08-21T16:44:34;20.40;99.90
15916;DHT22;8057;47.830;-3.870;2022-08-21T16:48:45;20.50;99.90
15916;DHT22;8057;47.830;-3.870;2022-08-21T16:52:54;20.60;99.90
15916;DHT22;8057;47.830;-3.870;2022-08-21T16:57:04;20.50;99.90
15916;DHT22;8057;47.830;-3.870;2022-08-21T17:01:17;20.30;99.90
15916;DHT22;8057;47.830;-3.870;2022-08-21T17:05:29;20.20;99.90
15916;DHT22;8057;47.830;-3.870;2022-08-21T17:09:38;20.10;99.90
15916;DHT22;8057;47.830;-3.870;2022-08-21T17:13:47;20.00;99.90
15916;DHT22;8057;47.830;-3.870;2022-08-21T17:17:57;19.90;99.90
15916;DHT22;8057;47.830;-3.870;2022-08-21T17:22:09;20.00;99.90
15916;DHT22;8057;47.830;-3.870;2022-08-21T17:26:18;19.90;99.90
15916;DHT22;8057;47.830;-3.870;2022-08-21T17:30:27;19.90;99.90
15916;DHT22;8057;47.830;-3.870;2022-08-21T17:34:38;19.70;99.90
15916;DHT22;8057;47.830;-3.870;2022-08-21T17:38:50;19.60;99.90
15916;DHT22;8057;47.830;-3.870;2022-08-21T17:42:59;19.50;99.90
15916;DHT22;8057;47.830;-3.870;2022-08-21T17:47:09;19.40;99.90
15916;DHT22;8057;47.830;-3.870;2022-08-21T17:51:20;19.40;99.90
15916;DHT22;8057;47.830;-3.870;2022-08-21T17:55:32;19.20;99.90
15916;DHT22;8057;47.830;-3.870;2022-08-21T17:59:42;19.20;99.90
15916;DHT22;8057;47.830;-3.870;2022-08-21T18:03:51;19.10;99.90
15916;DHT22;8057;47.830;-3.870;2022-08-21T18:08:03;19.10;99.90
15916;DHT22;8057;47.830;-3.870;2022-08-21T18:12:19;19.10;99.90
15916;DHT22;8057;47.830;-3.870;2022-08-21T18:16:30;19.00;99.90
15916;DHT22;8057;47.830;-3.870;2022-08-21T18:20:40;19.00;99.90
15916;DHT22;8057;47.830;-3.870;2022-08-21T18:24:49;19.00;99.90
15916;DHT22;8057;47.830;-3.870;2022-08-21T18:29:03;19.00;99.90
15916;DHT22;8057;47.830;-3.870;2022-08-21T18:33:13;18.90;99.90
15916;DHT22;8057;47.830;-3.870;2022-08-21T18:37:23;18.90;99.90
15916;DHT22;8057;47.830;-3.870;2022-08-21T18:41:32;18.80;99.90
15916;DHT22;8057;47.830;-3.870;2022-08-21T18:45:43;18.80;99.90
15916;DHT22;8057;47.830;-3.870;2022-08-21T18:49:53;18.80;99.90
15916;DHT22;8057;47.830;-3.870;2022-08-21T18:54:03;18.80;99.90
15916;DHT22;8057;47.830;-3.870;2022-08-21T18:58:19;18.80;99.90
15916;DHT22;8057;47.830;-3.870;2022-08-21T19:02:29;18.90;99.90
15916;DHT22;8057;47.830;-3.870;2022-08-21T19:06:40;18.90;99.90
15916;DHT22;8057;47.830;-3.870;2022-08-21T19:10:55;18.90;99.90
15916;DHT22;8057;47.830;-3.870;2022-08-21T19:15:07;18.90;99.90
15916;DHT22;8057;47.830;-3.870;2022-08-21T19:19:19;18.90;99.90
15916;DHT22;8057;47.830;-3.870;2022-08-21T19:23:28;18.90;99.90
15916;DHT22;8057;47.830;-3.870;2022-08-21T19:27:42;18.90;99.90
15916;DHT22;8057;47.830;-3.870;2022-08-21T19:31:52;18.90;99.90
15916;DHT22;8057;47.830;-3.870;2022-08-21T19:36:06;18.90;99.90
15916;DHT22;8057;47.830;-3.870;2022-08-21T19:40:16;18.90;99.90
15916;DHT22;8057;47.830;-3.870;2022-08-21T19:44:29;18.90;99.90
15916;DHT22;8057;47.830;-3.870;2022-08-21T19:48:38;18.90;99.90
15916;DHT22;8057;47.830;-3.870;2022-08-21T19:52:54;18.90;99.90
15916;DHT22;8057;47.830;-3.870;2022-08-21T19:57:05;18.90;99.90
15916;DHT22;8057;47.830;-3.870;2022-08-21T20:01:17;18.90;99.90
15916;DHT22;8057;47.830;-3.870;2022-08-21T20:05:27;18.90;99.90
15916;DHT22;8057;47.830;-3.870;2022-08-21T20:09:48;18.90;99.90
15916;DHT22;8057;47.830;-3.870;2022-08-21T20:13:57;19.00;99.90
15916;DHT22;8057;47.830;-3.870;2022-08-21T20:18:27;19.10;99.90
15916;DHT22;8057;47.830;-3.870;2022-08-21T20:22:36;19.10;99.90
15916;DHT22;8057;47.830;-3.870;2022-08-21T20:26:49;19.10;99.90
15916;DHT22;8057;47.830;-3.870;2022-08-21T20:30:59;19.10;99.90
15916;DHT22;8057;47.830;-3.870;2022-08-21T20:35:09;19.20;99.90
15916;DHT22;8057;47.830;-3.870;2022-08-21T20:39:38;19.30;99.90
15916;DHT22;8057;47.830;-3.870;2022-08-21T20:43:50;19.30;99.90
15916;DHT22;8057;47.830;-3.870;2022-08-21T20:48:02;19.30;99.90
15916;DHT22;8057;47.830;-3.870;2022-08-21T20:52:13;19.30;99.90
15916;DHT22;8057;47.830;-3.870;2022-08-21T20:56:34;19.30;99.90
15916;DHT22;8057;47.830;-3.870;2022-08-21T21:00:48;19.30;99.90
15916;DHT22;8057;47.830;-3.870;2022-08-21T21:05:03;19.20;99.90
15916;DHT22;8057;47.830;-3.870;2022-08-21T21:09:16;19.20;99.90
15916;DHT22;8057;47.830;-3.870;2022-08-21T21:13:29;19.20;99.90
15916;DHT22;8057;47.830;-3.870;2022-08-21T21:17:44;19.30;99.90
15916;DHT22;8057;47.830;-3.870;2022-08-21T21:21:59;19.30;99.90
15916;DHT22;8057;47.830;-3.870;2022-08-21T21:26:16;19.30;99.90
